createdAt,value
2023-04-06T00:02:12.966Z,35.30
2023-04-06T00:04:41.048Z,35.63
2023-04-06T00:07:09.189Z,36.26
2023-04-06T00:09:37.216Z,36.64
2023-04-06T00:12:05.234Z,36.64
2023-04-06T00:14:33.188Z,36.57
2023-04-06T00:17:01.201Z,37.63
2023-04-06T00:19:29.152Z,37.21
2023-04-06T00:21:57.185Z,37.93
2023-04-06T00:24:25.202Z,37.92
2023-04-06T00:26:53.314Z,37.86
2023-04-06T00:29:21.283Z,38.75
2023-04-06T00:31:49.318Z,39.54
2023-04-06T00:34:17.377Z,39.37
2023-04-06T00:36:45.550Z,39.29
2023-04-06T00:39:13.497Z,40.21
2023-04-06T00:41:50.835Z,39.48
2023-04-06T00:44:20.122Z,38.97
2023-04-06T00:46:48.336Z,39.00
2023-04-06T00:49:16.578Z,39.50
2023-04-06T00:51:44.681Z,40.35
2023-04-06T00:54:12.887Z,40.51
2023-04-06T00:56:42.748Z,40.14
2023-04-06T00:59:12.991Z,40.35
2023-04-06T01:01:41.990Z,39.23
2023-04-06T01:04:25.455Z,40.02
2023-04-06T01:06:55.221Z,39.81
2023-04-06T01:09:31.805Z,39.97
2023-04-06T01:12:04.794Z,40.59
2023-04-06T01:14:35.886Z,40.70
2023-04-06T01:17:04.202Z,40.46
2023-04-06T01:19:34.782Z,40.16
2023-04-06T01:22:02.909Z,40.51
2023-04-06T01:24:34.250Z,40.31
2023-04-06T01:27:31.480Z,40.84
2023-04-06T01:30:14.422Z,40.09
2023-04-06T01:33:08.693Z,40.10
2023-04-06T01:35:56.773Z,40.27
2023-04-06T01:38:24.866Z,40.24
2023-04-06T01:40:53.268Z,39.63
2023-04-06T01:43:24.178Z,40.08
2023-04-06T01:46:03.789Z,40.52
2023-04-06T01:48:36.345Z,40.37
2023-04-06T01:51:13.317Z,40.46
2023-04-06T01:53:50.758Z,40.65
2023-04-06T01:56:21.507Z,40.68
2023-04-06T01:59:01.125Z,40.78
2023-04-06T02:01:36.948Z,40.57
2023-04-06T02:04:05.117Z,41.19
2023-04-06T02:06:33.192Z,41.31
2023-04-06T02:09:03.241Z,41.73
2023-04-06T02:11:31.567Z,41.39
2023-04-06T02:14:01.630Z,41.26
2023-04-06T02:16:32.806Z,41.49
2023-04-06T02:19:00.736Z,41.43
2023-04-06T02:21:28.698Z,41.03
2023-04-06T02:23:56.987Z,41.53
2023-04-06T02:26:25.250Z,41.28
2023-04-06T02:28:53.207Z,41.58
2023-04-06T02:31:21.930Z,41.49
2023-04-06T02:33:51.001Z,41.61
2023-04-06T02:36:19.117Z,41.88
2023-04-06T02:38:47.207Z,41.94
2023-04-06T02:41:15.205Z,42.10
2023-04-06T02:43:43.297Z,41.92
2023-04-06T02:46:18.637Z,42.85
2023-04-06T02:48:46.778Z,43.37
2023-04-06T02:51:16.202Z,43.13
2023-04-06T02:53:49.291Z,43.68
2023-04-06T02:56:17.608Z,43.87
2023-04-06T02:58:50.159Z,43.56
2023-04-06T03:01:18.962Z,43.59
2023-04-06T03:03:47.848Z,43.95
2023-04-06T03:06:23.235Z,43.41
2023-04-06T03:08:55.813Z,44.17
2023-04-06T03:11:23.907Z,43.83
2023-04-06T03:13:54.097Z,44.05
2023-04-06T03:16:22.334Z,44.30
2023-04-06T03:18:50.601Z,44.00
2023-04-06T03:21:18.637Z,43.87
2023-04-06T03:23:52.476Z,44.19
2023-04-06T03:26:20.613Z,44.14
2023-04-06T03:28:48.543Z,43.41
2023-04-06T03:31:17.959Z,43.30
2023-04-06T03:34:00.660Z,43.02
2023-04-06T03:36:36.323Z,42.78
2023-04-06T03:39:06.327Z,43.46
2023-04-06T03:41:37.781Z,43.51
2023-04-06T03:44:33.127Z,42.97
2023-04-06T03:47:01.181Z,42.46
2023-04-06T03:49:29.210Z,42.61
2023-04-06T03:51:58.731Z,42.23
2023-04-06T03:54:26.702Z,42.83
2023-04-06T03:56:54.704Z,42.92
2023-04-06T03:59:22.769Z,42.80
2023-04-06T04:01:54.764Z,43.00
2023-04-06T04:04:22.970Z,42.68
2023-04-06T04:06:51.139Z,43.60
2023-04-06T04:09:19.105Z,43.49
2023-04-06T04:11:47.029Z,43.50
2023-04-06T04:14:15.030Z,43.02
2023-04-06T04:16:43.205Z,43.12
2023-04-06T04:19:11.301Z,43.24
2023-04-06T04:21:47.328Z,44.00
2023-04-06T04:24:19.659Z,43.96
2023-04-06T04:26:47.661Z,43.97
2023-04-06T04:29:16.629Z,43.73
2023-04-06T04:31:44.884Z,43.98
2023-04-06T04:34:18.052Z,44.00
2023-04-06T04:36:46.195Z,44.60
2023-04-06T04:39:21.542Z,44.70
2023-04-06T04:41:57.942Z,45.11
2023-04-06T04:44:26.378Z,45.37
2023-04-06T04:46:54.430Z,44.68
2023-04-06T04:49:28.232Z,44.84
2023-04-06T04:51:57.303Z,45.22
2023-04-06T04:54:32.593Z,45.47
2023-04-06T04:57:01.206Z,45.33
2023-04-06T04:59:57.330Z,45.41
2023-04-06T05:02:26.579Z,45.22
2023-04-06T05:05:05.606Z,44.39
2023-04-06T05:07:34.125Z,44.05
2023-04-06T05:10:03.821Z,44.99
2023-04-06T05:12:39.186Z,45.47
2023-04-06T05:15:10.225Z,45.28
2023-04-06T05:17:39.687Z,45.11
2023-04-06T05:20:09.916Z,44.72
2023-04-06T05:22:45.431Z,44.97
2023-04-06T05:25:15.072Z,45.44
2023-04-06T05:27:43.486Z,44.26
2023-04-06T05:30:30.529Z,44.59
2023-04-06T05:33:00.730Z,44.64
2023-04-06T05:35:35.947Z,44.44
2023-04-06T05:38:11.440Z,44.00
2023-04-06T05:40:42.296Z,44.34
2023-04-06T05:43:14.728Z,44.32
2023-04-06T05:45:46.904Z,44.32
2023-04-06T05:48:15.028Z,44.32
2023-04-06T05:50:43.086Z,43.93
2023-04-06T05:53:14.662Z,43.51
2023-04-06T05:55:47.075Z,43.80
2023-04-06T05:58:19.716Z,42.57
2023-04-06T06:00:49.181Z,42.74
2023-04-06T06:03:18.921Z,43.13
2023-04-06T06:05:52.785Z,42.64
2023-04-06T06:08:28.542Z,43.33
2023-04-06T06:10:57.924Z,42.82
2023-04-06T06:13:26.786Z,41.90
2023-04-06T06:15:55.147Z,41.42
2023-04-06T06:18:24.324Z,41.60
2023-04-06T06:20:55.342Z,40.97
2023-04-06T06:23:23.463Z,40.84
2023-04-06T06:25:51.390Z,40.23
2023-04-06T06:28:20.941Z,39.12
2023-04-06T06:30:49.437Z,39.48
2023-04-06T06:33:22.016Z,39.27
2023-04-06T06:35:53.447Z,39.18
2023-04-06T06:38:23.608Z,39.38
2023-04-06T06:40:52.711Z,39.06
2023-04-06T06:43:21.763Z,39.59
2023-04-06T06:46:00.143Z,38.70
2023-04-06T06:48:28.278Z,37.48
2023-04-06T06:50:56.463Z,37.55
2023-04-06T06:53:24.989Z,37.50
2023-04-06T06:55:53.029Z,36.15
2023-04-06T06:58:21.470Z,36.09
2023-04-06T07:00:50.188Z,35.22
2023-04-06T07:03:18.458Z,34.39
2023-04-06T07:05:51.370Z,35.47
2023-04-06T07:08:19.387Z,35.35
2023-04-06T07:10:47.375Z,34.98
2023-04-06T07:13:21.966Z,35.12
2023-04-06T07:15:52.028Z,34.04
2023-04-06T07:18:20.987Z,33.96
2023-04-06T07:20:49.167Z,33.91
2023-04-06T07:23:18.151Z,34.60
2023-04-06T07:25:46.821Z,34.65
2023-04-06T07:28:14.842Z,34.60
2023-04-06T07:30:43.533Z,33.79
2023-04-06T07:33:13.521Z,33.96
2023-04-06T07:35:43.316Z,33.20
2023-04-06T07:38:12.462Z,33.57
2023-04-06T07:40:41.794Z,33.00
2023-04-06T07:43:09.763Z,33.61
2023-04-06T07:45:38.035Z,33.12
2023-04-06T07:48:06.549Z,33.94
2023-04-06T07:50:35.996Z,33.77
2023-04-06T07:53:04.611Z,32.94
2023-04-06T07:55:32.661Z,32.84
2023-04-06T07:58:00.841Z,33.16
2023-04-06T08:00:28.903Z,33.39
2023-04-06T08:02:57.237Z,33.33
2023-04-06T08:05:25.280Z,33.62
2023-04-06T08:07:53.314Z,33.14
2023-04-06T08:10:21.327Z,32.98
2023-04-06T08:12:49.345Z,32.45
2023-04-06T08:15:19.600Z,31.76
2023-04-06T08:17:47.765Z,31.47
2023-04-06T08:20:15.851Z,30.95
2023-04-06T08:22:43.760Z,31.33
2023-04-06T08:25:11.874Z,31.06
2023-04-06T08:27:39.856Z,31.01
2023-04-06T08:30:08.094Z,29.66
2023-04-06T08:32:36.455Z,30.53
2023-04-06T08:35:04.632Z,31.05
2023-04-06T08:37:32.703Z,31.06
2023-04-06T08:40:01.175Z,31.78
2023-04-06T08:42:33.140Z,31.63
2023-04-06T08:45:02.262Z,31.43
2023-04-06T08:47:30.325Z,31.38
2023-04-06T08:50:00.728Z,31.31
2023-04-06T08:52:30.850Z,30.84
2023-04-06T08:54:58.814Z,30.98
2023-04-06T08:57:27.737Z,30.60
2023-04-06T08:59:57.727Z,29.68
2023-04-06T09:02:26.938Z,30.97
2023-04-06T09:04:55.785Z,30.56
2023-04-06T09:07:25.087Z,30.93
2023-04-06T09:09:53.135Z,30.76
2023-04-06T09:12:28.978Z,30.89
2023-04-06T09:14:57.973Z,30.60
2023-04-06T09:17:31.383Z,30.54
2023-04-06T09:20:00.600Z,30.54
2023-04-06T09:22:40.434Z,29.81
2023-04-06T09:25:12.033Z,30.22
2023-04-06T09:27:40.231Z,29.53
2023-04-06T09:30:15.316Z,29.26
2023-04-06T09:32:53.236Z,28.45
2023-04-06T09:35:22.354Z,29.24
2023-04-06T09:37:52.905Z,28.32
2023-04-06T09:40:22.300Z,26.57
2023-04-06T09:42:54.937Z,27.47
2023-04-06T09:45:22.989Z,27.92
2023-04-06T09:47:52.861Z,27.32
2023-04-06T09:50:22.473Z,26.84
2023-04-06T09:52:52.469Z,26.86
2023-04-06T09:55:44.212Z,26.30
2023-04-06T09:58:19.759Z,26.20
2023-04-06T10:01:13.551Z,26.75
2023-04-06T10:03:54.226Z,26.86
2023-04-06T10:06:24.907Z,26.25
2023-04-06T10:08:56.538Z,26.91
2023-04-06T10:11:24.748Z,26.79
2023-04-06T10:13:52.826Z,27.22
2023-04-06T10:16:21.177Z,26.60
2023-04-06T10:18:55.952Z,26.66
2023-04-06T10:21:27.937Z,25.81
2023-04-06T10:24:00.993Z,25.25
2023-04-06T10:26:29.120Z,25.37
2023-04-06T10:29:04.977Z,25.52
2023-04-06T10:31:33.421Z,25.50
2023-04-06T10:34:03.210Z,25.89
2023-04-06T10:36:35.681Z,25.99
2023-04-06T10:39:06.017Z,26.37
2023-04-06T10:41:42.980Z,26.41
2023-04-06T10:44:22.494Z,25.87
